sensor_id;sensor_type;location;lat;lon;timestamp;pressure;altitude;pressure_sealevel;temperature;humidity
19096;BME280;9680;52.520;13.332;2022-12-20T00:01:19;101572.88;;;4.66;86.29
19096;BME280;9680;52.520;13.332;2022-12-20T00:03:48;101578.88;;;4.65;86.31
19096;BME280;9680;52.520;13.332;2022-12-20T00:06:17;101578.03;;;4.65;86.41
19096;BME280;9680;52.520;13.332;2022-12-20T00:08:45;101582.34;;;4.66;86.29
19096;BME280;9680;52.520;13.332;2022-12-20T00:11:12;101578.88;;;4.69;86.25
19096;BME280;9680;52.520;13.332;2022-12-20T00:13:39;101580.63;;;4.68;86.12
19096;BME280;9680;52.520;13.332;2022-12-20T00:16:09;101578.91;;;4.67;85.83
19096;BME280;9680;52.520;13.332;2022-12-20T00:18:37;101567.72;;;4.68;85.85
19096;BME280;9680;52.520;13.332;2022-12-20T00:21:07;101563.41;;;4.69;85.72
19096;BME280;9680;52.520;13.332;2022-12-20T00:23:35;101568.56;;;4.67;85.56
19096;BME280;9680;52.520;13.332;2022-12-20T00:26:05;101575.47;;;4.68;85.54
19096;BME280;9680;52.520;13.332;2022-12-20T00:28:33;101567.72;;;4.68;85.64
19096;BME280;9680;52.520;13.332;2022-12-20T00:31:00;101558.25;;;4.70;85.50
19096;BME280;9680;52.520;13.332;2022-12-20T00:33:29;101547.91;;;4.72;85.47
19096;BME280;9680;52.520;13.332;2022-12-20T00:35:56;101543.59;;;4.71;85.10
19096;BME280;9680;52.520;13.332;2022-12-20T00:38:25;101540.16;;;4.69;85.17
19096;BME280;9680;52.520;13.332;2022-12-20T00:41:00;101547.06;;;4.71;85.07
19096;BME280;9680;52.520;13.332;2022-12-20T00:43:28;101546.19;;;4.72;84.92
19096;BME280;9680;52.520;13.332;2022-12-20T00:45:55;101549.66;;;4.71;84.90
19096;BME280;9680;52.520;13.332;2022-12-20T00:48:22;101546.19;;;4.71;84.94
19096;BME280;9680;52.520;13.332;2022-12-20T00:50:51;101552.22;;;4.74;84.94
19096;BME280;9680;52.520;13.332;2022-12-20T00:53:18;101554.81;;;4.77;84.94
19096;BME280;9680;52.520;13.332;2022-12-20T00:55:45;101544.47;;;4.76;84.61
19096;BME280;9680;52.520;13.332;2022-12-20T00:58:12;101548.75;;;4.77;84.61
19096;BME280;9680;52.520;13.332;2022-12-20T01:00:40;101541.91;;;4.77;84.57
19096;BME280;9680;52.520;13.332;2022-12-20T01:03:07;101546.19;;;4.77;84.41
19096;BME280;9680;52.520;13.332;2022-12-20T01:05:34;101546.19;;;4.77;84.21
19096;BME280;9680;52.520;13.332;2022-12-20T01:08:03;101547.06;;;4.77;84.21
19096;BME280;9680;52.520;13.332;2022-12-20T01:10:30;101555.66;;;4.79;84.26
19096;BME280;9680;52.520;13.332;2022-12-20T01:12:58;101552.19;;;4.79;84.22
19096;BME280;9680;52.520;13.332;2022-12-20T01:15:25;101558.25;;;4.83;84.25
19096;BME280;9680;52.520;13.332;2022-12-20T01:17:52;101546.16;;;4.83;84.01
19096;BME280;9680;52.520;13.332;2022-12-20T01:20:19;101542.75;;;4.86;84.08
19096;BME280;9680;52.520;13.332;2022-12-20T01:22:46;101542.75;;;4.89;83.77
19096;BME280;9680;52.520;13.332;2022-12-20T01:25:19;101541.88;;;4.90;83.88
19096;BME280;9680;52.520;13.332;2022-12-20T01:27:46;101547.03;;;4.91;83.81
19096;BME280;9680;52.520;13.332;2022-12-20T01:30:16;101549.63;;;4.93;83.67
19096;BME280;9680;52.520;13.332;2022-12-20T01:32:44;101545.28;;;4.93;83.64
19096;BME280;9680;52.520;13.332;2022-12-20T01:35:11;101547.88;;;4.96;83.77
19096;BME280;9680;52.520;13.332;2022-12-20T01:37:38;101547.03;;;5.01;83.66
19096;BME280;9680;52.520;13.332;2022-12-20T01:40:06;101535.84;;;5.02;83.54
19096;BME280;9680;52.520;13.332;2022-12-20T01:42:36;101531.53;;;5.04;83.41
19096;BME280;9680;52.520;13.332;2022-12-20T01:45:07;101527.19;;;5.07;83.54
19096;BME280;9680;52.520;13.332;2022-12-20T01:47:35;101524.63;;;5.06;82.86
19096;BME280;9680;52.520;13.332;2022-12-20T01:50:05;101522.94;;;5.02;82.85
19096;BME280;9680;52.520;13.332;2022-12-20T01:52:35;101520.34;;;4.99;82.87
19096;BME280;9680;52.520;13.332;2022-12-20T01:55:08;101522.06;;;4.92;82.78
19096;BME280;9680;52.520;13.332;2022-12-20T01:57:41;101532.41;;;4.86;82.73
19096;BME280;9680;52.520;13.332;2022-12-20T02:00:12;101533.28;;;4.80;82.95
19096;BME280;9680;52.520;13.332;2022-12-20T02:02:40;101532.44;;;4.79;83.44
19096;BME280;9680;52.520;13.332;2022-12-20T02:05:09;101525.53;;;4.80;83.46
19096;BME280;9680;52.520;13.332;2022-12-20T02:07:39;101519.53;;;4.76;83.28
19096;BME280;9680;52.520;13.332;2022-12-20T02:10:08;101522.13;;;4.70;83.22
19096;BME280;9680;52.520;13.332;2022-12-20T02:12:40;101517.81;;;4.61;83.15
19096;BME280;9680;52.520;13.332;2022-12-20T02:15:36;101530.72;;;4.55;83.51
19096;BME280;9680;52.520;13.332;2022-12-20T02:18:15;101532.41;;;4.58;84.00
19096;BME280;9680;52.520;13.332;2022-12-20T02:21:11;101532.44;;;4.67;84.38
19096;BME280;9680;52.520;13.332;2022-12-20T02:26:44;101518.63;;;4.85;83.67
19096;BME280;9680;52.520;13.332;2022-12-20T02:29:24;101528.09;;;4.91;83.48
19096;BME280;9680;52.520;13.332;2022-12-20T02:32:00;101515.19;;;4.94;83.10
19096;BME280;9680;52.520;13.332;2022-12-20T02:34:32;101516.03;;;4.94;82.96
19096;BME280;9680;52.520;13.332;2022-12-20T02:37:00;101525.50;;;4.97;83.02
19096;BME280;9680;52.520;13.332;2022-12-20T02:39:28;101514.31;;;5.00;82.93
19096;BME280;9680;52.520;13.332;2022-12-20T02:41:57;101516.91;;;4.98;82.69
19096;BME280;9680;52.520;13.332;2022-12-20T02:44:29;101503.13;;;5.01;82.90
19096;BME280;9680;52.520;13.332;2022-12-20T02:47:19;101503.97;;;5.06;82.68
19096;BME280;9680;52.520;13.332;2022-12-20T02:49:48;101489.31;;;5.13;82.74
19096;BME280;9680;52.520;13.332;2022-12-20T02:52:17;101484.97;;;5.18;82.49
19096;BME280;9680;52.520;13.332;2022-12-20T02:54:47;101478.94;;;5.22;82.24
19096;BME280;9680;52.520;13.332;2022-12-20T02:57:17;101487.56;;;5.22;81.98
19096;BME280;9680;52.520;13.332;2022-12-20T02:59:52;101478.94;;;5.23;82.00
19096;BME280;9680;52.520;13.332;2022-12-20T03:02:23;101466.03;;;5.23;81.62
19096;BME280;9680;52.520;13.332;2022-12-20T03:04:51;101460.00;;;5.20;81.70
19096;BME280;9680;52.520;13.332;2022-12-20T03:07:19;101466.06;;;5.17;81.63
19096;BME280;9680;52.520;13.332;2022-12-20T03:09:45;101464.34;;;5.16;81.65
19096;BME280;9680;52.520;13.332;2022-12-20T03:12:14;101465.19;;;5.17;81.76
19096;BME280;9680;52.520;13.332;2022-12-20T03:14:41;101461.69;;;5.24;81.86
19096;BME280;9680;52.520;13.332;2022-12-20T03:17:10;101463.41;;;5.28;81.73
19096;BME280;9680;52.520;13.332;2022-12-20T03:19:38;101453.94;;;5.29;81.42
19096;BME280;9680;52.520;13.332;2022-12-20T03:22:05;101449.63;;;5.31;81.53
19096;BME280;9680;52.520;13.332;2022-12-20T03:24:32;101454.81;;;5.32;81.00
19096;BME280;9680;52.520;13.332;2022-12-20T03:26:59;101460.78;;;5.36;81.52
19096;BME280;9680;52.520;13.332;2022-12-20T03:29:26;101458.19;;;5.41;81.35
19096;BME280;9680;52.520;13.332;2022-12-20T03:31:53;101479.69;;;5.44;81.18
19096;BME280;9680;52.520;13.332;2022-12-20T03:34:20;101485.72;;;5.49;81.23
19096;BME280;9680;52.520;13.332;2022-12-20T03:36:48;101476.22;;;5.51;80.74
19096;BME280;9680;52.520;13.332;2022-12-20T03:39:15;101472.75;;;5.56;80.92
19096;BME280;9680;52.520;13.332;2022-12-20T03:41:42;101469.28;;;5.57;80.53
19096;BME280;9680;52.520;13.332;2022-12-20T03:44:12;101483.94;;;5.59;80.60
19096;BME280;9680;52.520;13.332;2022-12-20T03:46:38;101475.31;;;5.60;80.52
19096;BME280;9680;52.520;13.332;2022-12-20T03:49:06;101479.59;;;5.63;80.29
19096;BME280;9680;52.520;13.332;2022-12-20T03:51:40;101476.16;;;5.61;80.26
19096;BME280;9680;52.520;13.332;2022-12-20T03:54:09;101471.88;;;5.57;80.03
19096;BME280;9680;52.520;13.332;2022-12-20T03:56:58;101473.63;;;5.51;79.89
19096;BME280;9680;52.520;13.332;2022-12-20T03:59:26;101454.72;;;5.43;79.98
19096;BME280;9680;52.520;13.332;2022-12-20T04:01:52;101466.88;;;5.30;80.06
19096;BME280;9680;52.520;13.332;2022-12-20T04:04:19;101460.84;;;5.19;80.19
19096;BME280;9680;52.520;13.332;2022-12-20T04:06:46;101474.69;;;5.10;80.51
19096;BME280;9680;52.520;13.332;2022-12-20T04:09:15;101469.53;;;5.04;80.99
19096;BME280;9680;52.520;13.332;2022-12-20T04:11:46;101473.00;;;5.00;81.10
19096;BME280;9680;52.520;13.332;2022-12-20T04:14:14;101473.00;;;4.93;81.43
19096;BME280;9680;52.520;13.332;2022-12-20T04:16:42;101469.56;;;4.90;81.45
19096;BME280;9680;52.520;13.332;2022-12-20T04:19:09;101470.44;;;4.87;81.73
19096;BME280;9680;52.520;13.332;2022-12-20T04:21:40;101467.00;;;4.84;81.92
19096;BME280;9680;52.520;13.332;2022-12-20T04:24:11;101460.97;;;4.80;81.95
19096;BME280;9680;52.520;13.332;2022-12-20T04:26:44;101448.94;;;4.76;82.14
19096;BME280;9680;52.520;13.332;2022-12-20T04:29:12;101451.53;;;4.74;82.35
19096;BME280;9680;52.520;13.332;2022-12-20T04:31:40;101459.28;;;4.73;82.38
19096;BME280;9680;52.520;13.332;2022-12-20T04:34:08;101469.63;;;4.71;82.50
19096;BME280;9680;52.520;13.332;2022-12-20T04:36:35;101452.41;;;4.69;82.47
19096;BME280;9680;52.520;13.332;2022-12-20T04:39:05;101453.28;;;4.66;82.77
19096;BME280;9680;52.520;13.332;2022-12-20T04:41:44;101463.59;;;4.68;83.03
19096;BME280;9680;52.520;13.332;2022-12-20T04:44:12;101455.84;;;4.71;83.22
19096;BME280;9680;52.520;13.332;2022-12-20T04:46:39;101455.84;;;4.74;83.02
19096;BME280;9680;52.520;13.332;2022-12-20T04:49:10;101452.41;;;4.72;82.59
19096;BME280;9680;52.520;13.332;2022-12-20T04:51:40;101440.38;;;4.66;82.64
19096;BME280;9680;52.520;13.332;2022-12-20T04:54:09;101445.53;;;4.60;82.65
19096;BME280;9680;52.520;13.332;2022-12-20T04:56:59;101450.69;;;4.54;82.85
19096;BME280;9680;52.520;13.332;2022-12-20T04:59:26;101456.72;;;4.49;83.04
19096;BME280;9680;52.520;13.332;2022-12-20T05:01:54;101452.44;;;4.45;83.21
19096;BME280;9680;52.520;13.332;2022-12-20T05:04:41;101456.75;;;4.43;83.51
19096;BME280;9680;52.520;13.332;2022-12-20T05:07:08;101454.16;;;4.46;83.92
19096;BME280;9680;52.520;13.332;2022-12-20T05:09:37;101448.13;;;4.55;84.04
19096;BME280;9680;52.520;13.332;2022-12-20T05:12:06;101440.38;;;4.64;84.22
19096;BME280;9680;52.520;13.332;2022-12-20T05:14:33;101454.13;;;4.76;83.92
19096;BME280;9680;52.520;13.332;2022-12-20T05:17:00;101456.66;;;4.85;83.82
19096;BME280;9680;52.520;13.332;2022-12-20T05:19:27;101448.88;;;4.94;83.50
19096;BME280;9680;52.520;13.332;2022-12-20T05:21:54;101448.03;;;4.99;82.88
19096;BME280;9680;52.520;13.332;2022-12-20T05:24:42;101444.59;;;4.98;82.36
19096;BME280;9680;52.520;13.332;2022-12-20T05:27:31;101421.34;;;4.96;82.50
19096;BME280;9680;52.520;13.332;2022-12-20T05:29:58;101417.91;;;4.99;82.65
19096;BME280;9680;52.520;13.332;2022-12-20T05:32:26;101435.94;;;5.05;82.70
19096;BME280;9680;52.520;13.332;2022-12-20T05:34:53;101429.06;;;5.07;82.47
19096;BME280;9680;52.520;13.332;2022-12-20T05:37:20;101435.06;;;5.13;82.40
19096;BME280;9680;52.520;13.332;2022-12-20T05:39:48;101424.72;;;5.17;82.27
19096;BME280;9680;52.520;13.332;2022-12-20T05:42:19;101420.38;;;5.24;82.12
19096;BME280;9680;52.520;13.332;2022-12-20T05:44:50;101416.03;;;5.29;81.89
19096;BME280;9680;52.520;13.332;2022-12-20T05:47:19;101415.19;;;5.33;81.73
19096;BME280;9680;52.520;13.332;2022-12-20T05:49:46;101416.00;;;5.37;81.66
19096;BME280;9680;52.520;13.332;2022-12-20T05:52:13;101421.16;;;5.40;81.55
19096;BME280;9680;52.520;13.332;2022-12-20T05:54:40;101440.09;;;5.42;81.35
19096;BME280;9680;52.520;13.332;2022-12-20T05:57:13;101426.28;;;5.48;81.36
19096;BME280;9680;52.520;13.332;2022-12-20T05:59:41;101425.41;;;5.52;81.39
19096;BME280;9680;52.520;13.332;2022-12-20T06:02:15;101410.72;;;5.56;80.94
19096;BME280;9680;52.520;13.332;2022-12-20T06:04:44;101414.16;;;5.58;80.97
19096;BME280;9680;52.520;13.332;2022-12-20T06:07:15;101423.63;;;5.59;80.86
19096;BME280;9680;52.520;13.332;2022-12-20T06:09:46;101433.09;;;5.61;81.06
19096;BME280;9680;52.520;13.332;2022-12-20T06:12:15;101434.81;;;5.64;81.07
19096;BME280;9680;52.520;13.332;2022-12-20T06:14:44;101430.47;;;5.69;81.08
19096;BME280;9680;52.520;13.332;2022-12-20T06:17:12;101430.47;;;5.72;80.98
19096;BME280;9680;52.520;13.332;2022-12-20T06:19:40;101436.47;;;5.74;80.82
19096;BME280;9680;52.520;13.332;2022-12-20T06:22:08;101448.53;;;5.75;80.90
19096;BME280;9680;52.520;13.332;2022-12-20T06:24:46;101436.44;;;5.77;80.73
19096;BME280;9680;52.520;13.332;2022-12-20T06:27:13;101445.06;;;5.79;80.82
19096;BME280;9680;52.520;13.332;2022-12-20T06:29:40;101449.34;;;5.80;80.80
19096;BME280;9680;52.520;13.332;2022-12-20T06:32:13;101440.72;;;5.81;80.73
19096;BME280;9680;52.520;13.332;2022-12-20T06:34:42;101441.59;;;5.80;80.84
19096;BME280;9680;52.520;13.332;2022-12-20T06:37:10;101442.44;;;5.81;80.99
19096;BME280;9680;52.520;13.332;2022-12-20T06:39:37;101442.47;;;5.79;81.23
19096;BME280;9680;52.520;13.332;2022-12-20T06:42:06;101443.34;;;5.77;81.33
19096;BME280;9680;52.520;13.332;2022-12-20T06:44:34;101446.78;;;5.77;81.83
19096;BME280;9680;52.520;13.332;2022-12-20T06:47:01;101444.22;;;5.77;81.82
19096;BME280;9680;52.520;13.332;2022-12-20T06:49:28;101444.22;;;5.77;82.21
19096;BME280;9680;52.520;13.332;2022-12-20T06:51:57;101445.06;;;5.79;82.16
19096;BME280;9680;52.520;13.332;2022-12-20T06:54:32;101445.06;;;5.78;82.33
19096;BME280;9680;52.520;13.332;2022-12-20T06:56:59;101448.47;;;5.80;82.82
19096;BME280;9680;52.520;13.332;2022-12-20T06:59:25;101444.16;;;5.82;83.04
19096;BME280;9680;52.520;13.332;2022-12-20T07:01:52;101440.72;;;5.81;82.96
19096;BME280;9680;52.520;13.332;2022-12-20T07:04:19;101445.03;;;5.82;83.11
19096;BME280;9680;52.520;13.332;2022-12-20T07:06:46;101449.34;;;5.83;83.45
19096;BME280;9680;52.520;13.332;2022-12-20T07:09:15;101451.03;;;5.86;83.72
19096;BME280;9680;52.520;13.332;2022-12-20T07:11:42;101453.59;;;5.91;83.67
19096;BME280;9680;52.520;13.332;2022-12-20T07:14:09;101453.56;;;5.92;83.77
19096;BME280;9680;52.520;13.332;2022-12-20T07:16:36;101453.59;;;5.91;83.99
19096;BME280;9680;52.520;13.332;2022-12-20T07:19:03;101456.16;;;5.94;84.12
19096;BME280;9680;52.520;13.332;2022-12-20T07:21:29;101461.31;;;5.95;84.04
19096;BME280;9680;52.520;13.332;2022-12-20T07:23:56;101468.19;;;6.00;84.33
19096;BME280;9680;52.520;13.332;2022-12-20T07:26:24;101463.88;;;6.03;84.42
19096;BME280;9680;52.520;13.332;2022-12-20T07:28:51;101474.19;;;6.06;84.02
19096;BME280;9680;52.520;13.332;2022-12-20T07:31:18;101475.06;;;6.07;84.14
19096;BME280;9680;52.520;13.332;2022-12-20T07:33:45;101477.66;;;6.05;84.28
19096;BME280;9680;52.520;13.332;2022-12-20T07:36:12;101473.31;;;6.07;84.43
19096;BME280;9680;52.520;13.332;2022-12-20T07:38:40;101480.19;;;6.11;84.52
19096;BME280;9680;52.520;13.332;2022-12-20T07:41:08;101482.75;;;6.15;84.49
19096;BME280;9680;52.520;13.332;2022-12-20T07:43:36;101487.03;;;6.19;84.65
19096;BME280;9680;52.520;13.332;2022-12-20T07:46:04;101487.03;;;6.20;84.48
19096;BME280;9680;52.520;13.332;2022-12-20T07:48:31;101487.00;;;6.22;84.53
19096;BME280;9680;52.520;13.332;2022-12-20T07:51:02;101492.22;;;6.20;84.44
19096;BME280;9680;52.520;13.332;2022-12-20T07:53:33;101487.88;;;6.21;84.76
19096;BME280;9680;52.520;13.332;2022-12-20T07:56:03;101491.34;;;6.20;85.24
19096;BME280;9680;52.520;13.332;2022-12-20T07:58:32;101483.59;;;6.21;85.16
19096;BME280;9680;52.520;13.332;2022-12-20T08:01:01;101486.13;;;6.23;85.52
19096;BME280;9680;52.520;13.332;2022-12-20T08:03:32;101483.56;;;6.23;85.47
19096;BME280;9680;52.520;13.332;2022-12-20T08:06:04;101486.16;;;6.24;85.64
19096;BME280;9680;52.520;13.332;2022-12-20T08:08:34;101481.81;;;6.25;85.79
19096;BME280;9680;52.520;13.332;2022-12-20T08:11:02;101476.66;;;6.22;85.56
19096;BME280;9680;52.520;13.332;2022-12-20T08:13:31;101479.25;;;6.22;86.09
19096;BME280;9680;52.520;13.332;2022-12-20T08:15:58;101482.72;;;6.22;85.99
19096;BME280;9680;52.520;13.332;2022-12-20T08:18:26;101481.84;;;6.22;86.21
19096;BME280;9680;52.520;13.332;2022-12-20T08:20:53;101474.94;;;6.22;86.61
19096;BME280;9680;52.520;13.332;2022-12-20T08:23:20;101483.56;;;6.24;86.79
19096;BME280;9680;52.520;13.332;2022-12-20T08:25:46;101474.91;;;6.27;86.85
19096;BME280;9680;52.520;13.332;2022-12-20T08:28:13;101484.38;;;6.28;86.81
19096;BME280;9680;52.520;13.332;2022-12-20T08:30:40;101484.38;;;6.31;87.00
19096;BME280;9680;52.520;13.332;2022-12-20T08:33:07;101473.13;;;6.35;87.10
19096;BME280;9680;52.520;13.332;2022-12-20T08:35:35;101463.63;;;6.36;87.29
19096;BME280;9680;52.520;13.332;2022-12-20T08:38:01;101456.72;;;6.35;87.11
19096;BME280;9680;52.520;13.332;2022-12-20T08:40:28;101455.84;;;6.36;87.12
19096;BME280;9680;52.520;13.332;2022-12-20T08:42:55;101462.75;;;6.38;87.46
19096;BME280;9680;52.520;13.332;2022-12-20T08:45:22;101469.63;;;6.43;87.50
19096;BME280;9680;52.520;13.332;2022-12-20T08:47:48;101466.13;;;6.47;87.39
19096;BME280;9680;52.520;13.332;2022-12-20T08:50:15;101460.03;;;6.51;87.52
19096;BME280;9680;52.520;13.332;2022-12-20T08:52:44;101459.06;;;6.60;87.72
19096;BME280;9680;52.520;13.332;2022-12-20T08:55:10;101461.63;;;6.64;87.45
19096;BME280;9680;52.520;13.332;2022-12-20T08:57:37;101460.69;;;6.72;87.77
19096;BME280;9680;52.520;13.332;2022-12-20T09:00:05;101462.34;;;6.79;87.22
19096;BME280;9680;52.520;13.332;2022-12-20T09:02:33;101462.31;;;6.83;87.13
19096;BME280;9680;52.520;13.332;2022-12-20T09:05:07;101454.50;;;6.87;87.25
19096;BME280;9680;52.520;13.332;2022-12-20T09:07:35;101453.63;;;6.86;86.97
19096;BME280;9680;52.520;13.332;2022-12-20T09:10:05;101457.94;;;6.89;87.30
19096;BME280;9680;52.520;13.332;2022-12-20T09:12:35;101440.56;;;6.95;87.04
19096;BME280;9680;52.520;13.332;2022-12-20T09:15:03;101453.47;;;7.02;87.30
19096;BME280;9680;52.520;13.332;2022-12-20T09:17:30;101448.19;;;7.09;87.33
19096;BME280;9680;52.520;13.332;2022-12-20T09:19:57;101449.81;;;7.17;87.19
19096;BME280;9680;52.520;13.332;2022-12-20T09:22:24;101441.09;;;7.24;86.96
19096;BME280;9680;52.520;13.332;2022-12-20T09:24:50;101420.28;;;7.32;86.97
19096;BME280;9680;52.520;13.332;2022-12-20T09:27:18;101431.34;;;7.45;86.84
19096;BME280;9680;52.520;13.332;2022-12-20T09:29:45;101432.06;;;7.54;86.60
19096;BME280;9680;52.520;13.332;2022-12-20T09:32:17;101432.72;;;7.69;86.40
19096;BME280;9680;52.520;13.332;2022-12-20T09:37:45;101434.00;;;7.98;85.67
19096;BME280;9680;52.520;13.332;2022-12-20T09:40:15;101430.44;;;8.05;84.93
19096;BME280;9680;52.520;13.332;2022-12-20T09:42:45;101424.16;;;8.19;84.77
19096;BME280;9680;52.520;13.332;2022-12-20T09:45:18;101427.41;;;8.31;84.81
19096;BME280;9680;52.520;13.332;2022-12-20T09:47:48;101420.31;;;8.41;84.13
19096;BME280;9680;52.520;13.332;2022-12-20T09:50:18;101417.66;;;8.44;83.78
19096;BME280;9680;52.520;13.332;2022-12-20T09:53:01;101421.16;;;8.42;83.32
19096;BME280;9680;52.520;13.332;2022-12-20T09:55:37;101421.13;;;8.43;82.92
19096;BME280;9680;52.520;13.332;2022-12-20T09:58:18;101425.41;;;8.46;83.47
19096;BME280;9680;52.520;13.332;2022-12-20T10:00:51;101438.38;;;8.49;83.08
19096;BME280;9680;52.520;13.332;2022-12-20T10:03:20;101427.09;;;8.49;82.70
19096;BME280;9680;52.520;13.332;2022-12-20T10:05:50;101433.19;;;8.48;82.75
19096;BME280;9680;52.520;13.332;2022-12-20T10:08:29;101434.00;;;8.51;82.67
19096;BME280;9680;52.520;13.332;2022-12-20T10:11:08;101433.88;;;8.59;82.56
19096;BME280;9680;52.520;13.332;2022-12-20T10:13:52;101431.09;;;8.68;82.59
19096;BME280;9680;52.520;13.332;2022-12-20T10:16:33;101434.44;;;8.75;82.00
19096;BME280;9680;52.520;13.332;2022-12-20T10:19:13;101431.69;;;8.83;81.58
19096;BME280;9680;52.520;13.332;2022-12-20T10:21:52;101427.25;;;8.88;81.16
19096;BME280;9680;52.520;13.332;2022-12-20T10:24:26;101419.44;;;8.88;80.73
19096;BME280;9680;52.520;13.332;2022-12-20T10:26:55;101406.53;;;8.85;80.91
19096;BME280;9680;52.520;13.332;2022-12-20T10:29:23;101408.34;;;8.81;80.93
19096;BME280;9680;52.520;13.332;2022-12-20T10:31:52;101403.16;;;8.81;80.80
19096;BME280;9680;52.520;13.332;2022-12-20T10:34:20;101386.66;;;8.82;80.91
19096;BME280;9680;52.520;13.332;2022-12-20T10:37:09;101389.28;;;8.81;80.88
19096;BME280;9680;52.520;13.332;2022-12-20T10:39:40;101376.22;;;8.84;80.54
19096;BME280;9680;52.520;13.332;2022-12-20T10:42:23;101365.00;;;8.83;80.48
19096;BME280;9680;52.520;13.332;2022-12-20T10:44:53;101359.81;;;8.82;80.55
19096;BME280;9680;52.520;13.332;2022-12-20T10:47:27;101357.97;;;8.88;80.78
19096;BME280;9680;52.520;13.332;2022-12-20T10:50:09;101360.28;;;9.01;80.62
19096;BME280;9680;52.520;13.332;2022-12-20T10:52:38;101360.00;;;9.15;80.54
19096;BME280;9680;52.520;13.332;2022-12-20T10:55:31;101352.91;;;9.22;80.28
19096;BME280;9680;52.520;13.332;2022-12-20T10:58:13;101341.53;;;9.27;79.79
19096;BME280;9680;52.520;13.332;2022-12-20T11:00:42;101330.22;;;9.28;79.43
19096;BME280;9680;52.520;13.332;2022-12-20T11:03:14;101314.63;;;9.30;79.61
19096;BME280;9680;52.520;13.332;2022-12-20T11:05:52;101319.75;;;9.31;79.34
19096;BME280;9680;52.520;13.332;2022-12-20T11:08:28;101318.03;;;9.32;79.24
19096;BME280;9680;52.520;13.332;2022-12-20T11:11:11;101321.53;;;9.29;79.22
19096;BME280;9680;52.520;13.332;2022-12-20T11:13:39;101314.78;;;9.22;78.77
19096;BME280;9680;52.520;13.332;2022-12-20T11:16:33;101296.81;;;9.13;78.77
19096;BME280;9680;52.520;13.332;2022-12-20T11:19:19;101288.19;;;9.09;79.10
19096;BME280;9680;52.520;13.332;2022-12-20T11:21:56;101301.88;;;9.17;79.24
19096;BME280;9680;52.520;13.332;2022-12-20T11:24:31;101300.91;;;9.22;78.84
19096;BME280;9680;52.520;13.332;2022-12-20T11:27:12;101299.28;;;9.17;78.55
19096;BME280;9680;52.520;13.332;2022-12-20T11:30:00;101296.06;;;9.08;78.60
19096;BME280;9680;52.520;13.332;2022-12-20T11:35:27;101287.09;;;9.20;78.94
19096;BME280;9680;52.520;13.332;2022-12-20T11:38:06;101280.09;;;9.23;78.51
19096;BME280;9680;52.520;13.332;2022-12-20T11:40:43;101279.06;;;9.30;78.24
19096;BME280;9680;52.520;13.332;2022-12-20T11:43:26;101276.44;;;9.32;77.80
19096;BME280;9680;52.520;13.332;2022-12-20T11:46:13;101271.84;;;9.42;78.27
19096;BME280;9680;52.520;13.332;2022-12-20T11:48:57;101269.91;;;9.50;77.94
19096;BME280;9680;52.520;13.332;2022-12-20T11:51:38;101262.97;;;9.51;77.44
19096;BME280;9680;52.520;13.332;2022-12-20T11:54:11;101261.25;;;9.50;77.23
19096;BME280;9680;52.520;13.332;2022-12-20T11:56:42;101269.06;;;9.50;77.28
19096;BME280;9680;52.520;13.332;2022-12-20T11:59:14;101257.63;;;9.55;77.30
19096;BME280;9680;52.520;13.332;2022-12-20T12:01:50;101266.97;;;9.64;76.98
19096;BME280;9680;52.520;13.332;2022-12-20T12:04:21;101266.88;;;9.67;76.76
19096;BME280;9680;52.520;13.332;2022-12-20T12:06:54;101264.19;;;9.72;76.85
19096;BME280;9680;52.520;13.332;2022-12-20T12:09:24;101271.75;;;9.80;76.48
19096;BME280;9680;52.520;13.332;2022-12-20T12:11:59;101256.06;;;9.83;76.09
19096;BME280;9680;52.520;13.332;2022-12-20T12:14:41;101266.56;;;9.80;76.08
19096;BME280;9680;52.520;13.332;2022-12-20T12:17:13;101261.50;;;9.75;76.03
19096;BME280;9680;52.520;13.332;2022-12-20T12:19:45;101260.69;;;9.73;75.89
19096;BME280;9680;52.520;13.332;2022-12-20T12:22:19;101252.06;;;9.71;76.00
19096;BME280;9680;52.520;13.332;2022-12-20T12:24:52;101235.66;;;9.67;76.20
19096;BME280;9680;52.520;13.332;2022-12-20T12:27:23;101244.44;;;9.63;75.81
19096;BME280;9680;52.520;13.332;2022-12-20T12:29:50;101232.44;;;9.57;76.15
19096;BME280;9680;52.520;13.332;2022-12-20T12:32:24;101235.19;;;9.51;76.24
19096;BME280;9680;52.520;13.332;2022-12-20T12:35:12;101230.94;;;9.49;76.71
19096;BME280;9680;52.520;13.332;2022-12-20T12:37:57;101233.63;;;9.45;76.41
19096;BME280;9680;52.520;13.332;2022-12-20T12:40:49;101236.31;;;9.41;76.76
19096;BME280;9680;52.520;13.332;2022-12-20T12:46:24;101214.63;;;9.42;77.19
19096;BME280;9680;52.520;13.332;2022-12-20T12:48:56;101218.78;;;9.49;77.09
19096;BME280;9680;52.520;13.332;2022-12-20T12:51:29;101216.25;;;9.47;76.80
19096;BME280;9680;52.520;13.332;2022-12-20T12:54:16;101207.72;;;9.41;77.27
19096;BME280;9680;52.520;13.332;2022-12-20T12:56:45;101202.53;;;9.41;77.31
19096;BME280;9680;52.520;13.332;2022-12-20T12:59:21;101202.53;;;9.41;77.37
19096;BME280;9680;52.520;13.332;2022-12-20T13:01:49;101199.09;;;9.39;77.07
19096;BME280;9680;52.520;13.332;2022-12-20T13:04:23;101205.28;;;9.35;77.23
19096;BME280;9680;52.520;13.332;2022-12-20T13:07:18;101197.75;;;9.24;77.27
19096;BME280;9680;52.520;13.332;2022-12-20T13:09:50;101193.50;;;9.20;77.37
19096;BME280;9680;52.520;13.332;2022-12-20T13:12:52;101203.19;;;9.14;77.69
19096;BME280;9680;52.520;13.332;2022-12-20T13:18:26;101203.31;;;9.10;77.95
19096;BME280;9680;52.520;13.332;2022-12-20T13:21:23;101193.91;;;9.04;77.91
19096;BME280;9680;52.520;13.332;2022-12-20T13:32:54;101197.31;;;8.68;78.49
19096;BME280;9680;52.520;13.332;2022-12-20T13:35:30;101208.59;;;8.67;78.66
19096;BME280;9680;52.520;13.332;2022-12-20T13:37:59;101194.78;;;8.67;78.56
19096;BME280;9680;52.520;13.332;2022-12-20T13:40:33;101190.41;;;8.69;78.60
19096;BME280;9680;52.520;13.332;2022-12-20T13:43:05;101193.03;;;8.67;78.21
19096;BME280;9680;52.520;13.332;2022-12-20T13:45:34;101182.69;;;8.66;78.34